createdAt,value
2024-02-02T00:00:17.800Z,8.3
2024-02-02T00:01:18.235Z,7.4
2024-02-02T00:02:17.883Z,7.8
2024-02-02T00:03:18.223Z,9.0
2024-02-02T00:04:18.168Z,8.6
2024-02-02T00:05:17.203Z,7.4
2024-02-02T00:06:17.627Z,6.9
2024-02-02T00:07:17.479Z,7.8
2024-02-02T00:08:17.527Z,8.2
2024-02-02T00:09:17.430Z,8.1
2024-02-02T00:10:18.094Z,6.9
2024-02-02T00:11:17.480Z,6.6
2024-02-02T00:12:17.554Z,8.1
2024-02-02T00:13:17.632Z,7.2
2024-02-02T00:14:17.485Z,7.4
2024-02-02T00:15:18.121Z,8.1
2024-02-02T00:16:17.866Z,8.2
2024-02-02T00:17:18.074Z,8.2
2024-02-02T00:18:17.973Z,7.3
2024-02-02T00:19:18.095Z,8.4
2024-02-02T00:20:17.518Z,6.9
2024-02-02T00:21:17.326Z,7.8
2024-02-02T00:22:17.431Z,7.0
2024-02-02T00:23:17.361Z,7.6
2024-02-02T00:24:17.373Z,8.3
2024-02-02T00:25:17.958Z,7.9
2024-02-02T00:26:17.725Z,7.2
2024-02-02T00:27:17.686Z,7.7
2024-02-02T00:28:17.894Z,7.9
2024-02-02T00:29:17.705Z,7.8
2024-02-02T00:30:17.545Z,7.4
2024-02-02T00:31:18.355Z,8.2
2024-02-02T00:32:17.961Z,6.8
2024-02-02T00:33:17.922Z,7.3
2024-02-02T00:34:17.807Z,7.1
2024-02-02T00:35:17.412Z,8.3
2024-02-02T00:36:18.331Z,8.9
2024-02-02T00:37:17.968Z,7.7
2024-02-02T00:38:17.814Z,7.6
2024-02-02T00:39:17.673Z,7.6
2024-02-02T00:40:20.864Z,7.9
2024-02-02T00:41:18.337Z,8.4
2024-02-02T00:42:17.565Z,9.0
2024-02-02T00:43:17.344Z,8.5
2024-02-02T00:44:17.968Z,8.0
2024-02-02T00:45:17.651Z,8.3
2024-02-02T00:46:17.585Z,8.4
2024-02-02T00:47:17.399Z,8.2
2024-02-02T00:48:18.181Z,7.5
2024-02-02T00:49:17.945Z,8.1
2024-02-02T00:50:17.662Z,7.6
2024-02-02T00:51:17.775Z,7.6
2024-02-02T00:52:17.489Z,6.8
2024-02-02T00:53:18.094Z,7.7
2024-02-02T00:54:17.819Z,6.6
2024-02-02T00:55:17.668Z,7.2
2024-02-02T00:56:17.464Z,7.0
2024-02-02T00:57:17.577Z,7.2
2024-02-02T00:58:18.134Z,7.7
2024-02-02T00:59:17.956Z,6.7
2024-02-02T01:00:18.002Z,6.6
2024-02-02T01:01:17.579Z,7.2
2024-02-02T01:02:17.554Z,7.3
2024-02-02T01:03:18.145Z,7.2
2024-02-02T01:04:17.575Z,7.2
2024-02-02T01:05:17.350Z,7.5
2024-02-02T01:06:18.051Z,7.2
2024-02-02T01:07:17.889Z,7.4
2024-02-02T01:08:17.729Z,7.6
2024-02-02T01:09:17.586Z,7.4
2024-02-02T01:10:18.296Z,7.7
2024-02-02T01:11:18.060Z,6.9
2024-02-02T01:12:17.688Z,7.1
2024-02-02T01:13:18.067Z,7.6
2024-02-02T01:14:17.913Z,7.4
2024-02-02T01:15:17.848Z,7.5
2024-02-02T01:16:17.500Z,7.4
2024-02-02T01:17:17.304Z,6.8
2024-02-02T01:18:17.992Z,7.7
2024-02-02T01:19:17.613Z,8.6
2024-02-02T01:20:17.989Z,7.4
2024-02-02T01:21:17.470Z,8.1
2024-02-02T01:22:17.230Z,8.0
2024-02-02T01:23:17.484Z,8.0
2024-02-02T01:24:17.338Z,7.3
2024-02-02T01:25:17.977Z,7.3
2024-02-02T01:26:17.904Z,7.3
2024-02-02T01:27:17.440Z,8.3
2024-02-02T01:28:18.118Z,8.7
2024-02-02T01:29:17.772Z,7.8
2024-02-02T01:30:17.609Z,7.7
2024-02-02T01:31:17.460Z,7.0
2024-02-02T01:32:18.189Z,7.9
2024-02-02T01:33:18.120Z,7.7
2024-02-02T01:34:17.926Z,7.8
2024-02-02T01:35:17.777Z,8.0
2024-02-02T01:36:17.615Z,7.5
2024-02-02T01:37:18.013Z,7.2
2024-02-02T01:38:17.460Z,7.3
2024-02-02T01:39:17.238Z,7.7
2024-02-02T01:40:18.202Z,8.0
2024-02-02T01:41:18.276Z,8.1
2024-02-02T01:42:17.751Z,7.3
2024-02-02T01:43:17.515Z,7.1
2024-02-02T01:44:18.193Z,7.0
2024-02-02T01:45:17.378Z,7.0
2024-02-02T01:46:17.758Z,7.5
2024-02-02T01:47:17.992Z,8.6
2024-02-02T01:48:18.154Z,7.6
2024-02-02T01:49:18.051Z,6.9
2024-02-02T01:50:17.268Z,7.8
2024-02-02T01:51:17.585Z,8.0
2024-02-02T01:52:17.444Z,7.5
2024-02-02T01:53:17.209Z,7.9
2024-02-02T01:54:17.986Z,7.0
2024-02-02T01:55:17.764Z,7.4
2024-02-02T01:56:17.639Z,7.5
2024-02-02T01:57:17.498Z,7.6
2024-02-02T01:58:17.290Z,7.1
2024-02-02T01:59:17.898Z,7.4
2024-02-02T02:00:17.966Z,7.6
2024-02-02T02:01:17.513Z,8.0
2024-02-02T02:02:17.294Z,7.6
2024-02-02T02:03:18.271Z,7.6
2024-02-02T02:04:18.096Z,6.9
2024-02-02T02:05:17.820Z,7.6
2024-02-02T02:06:17.609Z,7.0
2024-02-02T02:07:17.263Z,7.6
2024-02-02T02:08:17.517Z,7.5
2024-02-02T02:09:17.477Z,7.5
2024-02-02T02:10:17.453Z,7.4
2024-02-02T02:11:18.010Z,7.0
2024-02-02T02:12:17.540Z,6.6
2024-02-02T02:13:18.339Z,7.8
2024-02-02T02:14:17.812Z,5.9
2024-02-02T02:15:17.739Z,6.9
2024-02-02T02:16:17.423Z,7.7
2024-02-02T02:17:17.218Z,7.3
2024-02-02T02:18:17.650Z,7.4
2024-02-02T02:19:17.536Z,7.5
2024-02-02T02:20:22.004Z,7.4
2024-02-02T02:21:27.238Z,7.8
2024-02-02T02:22:17.724Z,7.3
2024-02-02T02:23:17.704Z,6.4
2024-02-02T02:24:17.513Z,6.1
2024-02-02T02:25:17.578Z,7.1
2024-02-02T02:26:18.283Z,6.2
2024-02-02T02:27:17.536Z,7.8
2024-02-02T02:28:17.957Z,7.1
2024-02-02T02:29:17.716Z,6.8
2024-02-02T02:30:17.777Z,6.9
2024-02-02T02:31:17.492Z,5.8
2024-02-02T02:32:18.337Z,6.4
2024-02-02T02:33:18.147Z,7.4
2024-02-02T02:34:17.895Z,7.9
2024-02-02T02:35:17.639Z,6.4
2024-02-02T02:36:17.644Z,7.0
2024-02-02T02:37:17.400Z,6.9
2024-02-02T02:38:17.958Z,7.1
2024-02-02T02:39:17.864Z,6.6
2024-02-02T02:40:17.657Z,7.1
2024-02-02T02:41:17.426Z,7.2
2024-02-02T02:42:18.362Z,6.3
2024-02-02T02:43:18.200Z,6.7
2024-02-02T02:44:17.448Z,7.6
2024-02-02T02:45:17.660Z,7.7
2024-02-02T02:46:17.444Z,7.2
2024-02-02T02:47:18.655Z,6.7
2024-02-02T02:48:17.943Z,6.8
2024-02-02T02:49:17.759Z,6.8
2024-02-02T02:50:17.416Z,7.2
2024-02-02T02:51:17.461Z,6.6
2024-02-02T02:52:17.506Z,7.0
2024-02-02T02:53:17.305Z,7.4
2024-02-02T02:54:17.610Z,6.6
2024-02-02T02:55:17.362Z,7.5
2024-02-02T02:56:17.224Z,6.6
2024-02-02T02:57:17.937Z,6.8
2024-02-02T02:58:17.887Z,7.4
2024-02-02T02:59:17.734Z,6.7
2024-02-02T03:00:17.945Z,6.8
2024-02-02T03:01:17.684Z,6.2
2024-02-02T03:02:17.541Z,6.9
2024-02-02T03:03:17.403Z,6.3
2024-02-02T03:04:18.148Z,7.1
2024-02-02T03:05:17.395Z,6.6
2024-02-02T03:06:18.319Z,7.0
2024-02-02T03:07:18.021Z,5.9
2024-02-02T03:08:17.908Z,6.7
2024-02-02T03:09:17.662Z,7.4
2024-02-02T03:10:17.497Z,6.9
2024-02-02T03:11:17.642Z,6.8
2024-02-02T03:12:17.893Z,7.2
2024-02-02T03:13:17.787Z,7.0
2024-02-02T03:14:17.938Z,8.0
2024-02-02T03:15:17.903Z,7.9
2024-02-02T03:16:17.583Z,7.4
2024-02-02T03:17:17.484Z,8.1
2024-02-02T03:18:17.852Z,7.2
2024-02-02T03:19:17.781Z,6.8
2024-02-02T03:20:17.678Z,7.2
2024-02-02T03:21:17.628Z,7.5
2024-02-02T03:22:17.348Z,7.3
2024-02-02T03:23:18.040Z,6.2
2024-02-02T03:24:17.789Z,7.6
2024-02-02T03:25:17.648Z,6.8
2024-02-02T03:26:17.462Z,6.8
2024-02-02T03:27:18.459Z,7.0
2024-02-02T03:28:17.967Z,7.6
2024-02-02T03:29:19.213Z,7.1
2024-02-02T03:30:17.802Z,7.1
2024-02-02T03:31:17.487Z,6.4
2024-02-02T03:32:17.355Z,6.8
2024-02-02T03:33:18.192Z,7.0
2024-02-02T03:34:17.937Z,7.3
2024-02-02T03:35:17.454Z,7.9
2024-02-02T03:36:18.082Z,7.1
2024-02-02T03:37:18.687Z,7.3
2024-02-02T03:38:18.020Z,7.1
2024-02-02T03:39:17.908Z,7.0
2024-02-02T03:40:17.290Z,6.5
2024-02-02T03:41:18.022Z,7.9
2024-02-02T03:42:17.883Z,7.1
2024-02-02T03:43:17.690Z,6.9
2024-02-02T03:44:17.443Z,7.6
2024-02-02T03:45:18.255Z,6.9
2024-02-02T03:46:17.763Z,6.9
2024-02-02T03:47:17.682Z,6.6
2024-02-02T03:48:17.734Z,5.7
2024-02-02T03:49:18.184Z,7.1
2024-02-02T03:50:17.562Z,6.7
2024-02-02T03:51:17.367Z,7.1
2024-02-02T03:52:17.168Z,7.1
2024-02-02T03:53:17.860Z,7.5
2024-02-02T03:54:17.822Z,6.8
2024-02-02T03:55:17.459Z,7.6
2024-02-02T03:56:17.762Z,6.6
2024-02-02T03:57:17.673Z,7.3
2024-02-02T03:58:17.353Z,6.5
2024-02-02T03:59:17.256Z,6.7
2024-02-02T04:00:18.445Z,6.9
2024-02-02T04:01:17.288Z,6.2
2024-02-02T04:02:18.170Z,6.7
2024-02-02T04:03:18.020Z,6.0
2024-02-02T04:04:17.914Z,6.6
2024-02-02T04:05:17.784Z,6.1
2024-02-02T04:06:17.473Z,6.2
2024-02-02T04:07:17.677Z,7.2
2024-02-02T04:08:17.429Z,6.3
2024-02-02T04:09:17.324Z,6.8
2024-02-02T04:10:18.094Z,7.0
2024-02-02T04:11:17.369Z,6.9
2024-02-02T04:12:17.994Z,7.1
2024-02-02T04:13:17.881Z,7.4
2024-02-02T04:14:17.736Z,6.6
2024-02-02T04:15:17.587Z,6.4
2024-02-02T04:16:17.350Z,6.9
2024-02-02T04:17:18.051Z,7.2
2024-02-02T04:18:17.979Z,7.4
2024-02-02T04:19:17.792Z,6.6
2024-02-02T04:20:17.518Z,7.0
2024-02-02T04:21:17.331Z,6.9
2024-02-02T04:22:18.003Z,6.4
2024-02-02T04:23:17.859Z,5.7
2024-02-02T04:24:17.738Z,6.3
2024-02-02T04:25:17.386Z,7.0
2024-02-02T04:26:17.391Z,6.9
2024-02-02T04:27:18.182Z,6.8
2024-02-02T04:28:17.896Z,6.1
2024-02-02T04:29:17.570Z,6.5
2024-02-02T04:30:17.953Z,6.2
2024-02-02T04:31:17.706Z,5.5
2024-02-02T04:32:18.155Z,6.3
2024-02-02T04:33:17.940Z,6.8
2024-02-02T04:34:17.859Z,7.6
2024-02-02T04:35:17.535Z,6.6
2024-02-02T04:36:17.716Z,6.4
2024-02-02T04:37:17.516Z,7.2
2024-02-02T04:38:17.302Z,6.2
2024-02-02T04:39:17.994Z,6.9
2024-02-02T04:40:17.816Z,6.8
2024-02-02T04:41:18.222Z,6.6
2024-02-02T04:42:17.875Z,7.1
2024-02-02T04:43:17.697Z,7.0
2024-02-02T04:44:17.587Z,6.5
2024-02-02T04:45:17.448Z,5.5
2024-02-02T04:46:18.049Z,6.8
2024-02-02T04:47:18.102Z,7.5
2024-02-02T04:48:18.012Z,6.5
2024-02-02T04:49:17.581Z,6.9
2024-02-02T04:50:17.322Z,6.6
2024-02-02T04:51:18.165Z,6.9
2024-02-02T04:52:17.736Z,6.6
2024-02-02T04:53:17.595Z,7.1
2024-02-02T04:54:17.406Z,6.6
2024-02-02T04:55:17.302Z,6.6
2024-02-02T04:56:17.978Z,6.2
2024-02-02T04:57:17.374Z,7.9
2024-02-02T04:58:18.035Z,7.4
2024-02-02T04:59:17.775Z,6.5
2024-02-02T05:00:17.745Z,7.1
2024-02-02T05:01:18.456Z,6.4
2024-02-02T05:02:17.987Z,5.4
2024-02-02T05:03:17.599Z,6.4
2024-02-02T05:04:17.571Z,6.5
2024-02-02T05:05:17.314Z,6.9
2024-02-02T05:06:18.254Z,7.4
2024-02-02T05:07:17.970Z,6.6
2024-02-02T05:08:17.614Z,7.2
2024-02-02T05:09:17.875Z,6.9
2024-02-02T05:10:18.089Z,6.7
2024-02-02T05:11:17.580Z,6.7
2024-02-02T05:12:17.645Z,6.6
2024-02-02T05:13:18.031Z,6.6
2024-02-02T05:14:17.891Z,6.9
2024-02-02T05:15:17.715Z,6.5
2024-02-02T05:16:17.517Z,6.1
2024-02-02T05:17:17.447Z,7.7
2024-02-02T05:18:18.325Z,7.1
2024-02-02T05:19:17.934Z,7.0
2024-02-02T05:20:17.772Z,6.2
2024-02-02T05:21:17.597Z,6.6
2024-02-02T05:22:17.294Z,6.4
2024-02-02T05:23:18.250Z,6.4
2024-02-02T05:24:31.610Z,6.8
2024-02-02T05:25:17.909Z,5.9
2024-02-02T05:26:17.531Z,7.2
2024-02-02T05:27:17.343Z,6.4
2024-02-02T05:28:17.930Z,6.4
2024-02-02T05:29:17.719Z,7.1
2024-02-02T05:30:17.650Z,6.3
2024-02-02T05:31:17.372Z,6.8
2024-02-02T05:32:17.255Z,7.1
2024-02-02T05:33:18.103Z,7.2
2024-02-02T05:34:17.854Z,7.3
2024-02-02T05:35:17.998Z,6.6
2024-02-02T05:36:20.188Z,7.1
2024-02-02T05:37:17.600Z,6.5
2024-02-02T05:38:17.707Z,6.5
2024-02-02T05:39:17.846Z,6.7
2024-02-02T05:40:17.698Z,6.2
2024-02-02T05:41:17.628Z,6.5
2024-02-02T05:42:17.657Z,5.8
2024-02-02T05:43:18.190Z,6.3
2024-02-02T05:44:17.939Z,7.0
2024-02-02T05:45:17.755Z,6.3
2024-02-02T05:46:17.577Z,6.9
2024-02-02T05:47:17.338Z,7.0
2024-02-02T05:48:17.865Z,6.5
2024-02-02T05:49:17.455Z,6.6
2024-02-02T05:50:17.591Z,6.8
2024-02-02T05:51:17.566Z,5.9
2024-02-02T05:52:17.331Z,6.4
2024-02-02T05:53:18.042Z,6.9
2024-02-02T05:54:17.889Z,6.1
2024-02-02T05:55:17.645Z,6.6
2024-02-02T05:56:18.259Z,6.3
2024-02-02T05:57:17.444Z,7.3
2024-02-02T05:58:17.800Z,6.4
2024-02-02T05:59:17.861Z,7.3
2024-02-02T06:00:17.739Z,6.6
2024-02-02T06:01:17.479Z,6.5
2024-02-02T06:02:17.513Z,5.6
2024-02-02T06:03:17.390Z,6.7
2024-02-02T06:04:17.194Z,6.9
2024-02-02T06:05:17.883Z,5.9
2024-02-02T06:06:17.486Z,6.7
2024-02-02T06:07:18.253Z,6.4
2024-02-02T06:08:18.025Z,6.4
2024-02-02T06:09:17.744Z,6.4
2024-02-02T06:10:17.539Z,6.6
2024-02-02T06:11:17.794Z,6.5
2024-02-02T06:12:18.322Z,6.6
2024-02-02T06:13:17.829Z,6.4
2024-02-02T06:14:17.358Z,6.7
2024-02-02T06:15:18.041Z,6.0
2024-02-02T06:16:17.864Z,6.5
2024-02-02T06:17:17.605Z,6.3
2024-02-02T06:18:17.886Z,6.3
2024-02-02T06:19:17.269Z,6.6
2024-02-02T06:20:17.620Z,6.9
2024-02-02T06:21:17.512Z,7.1
2024-02-02T06:22:18.174Z,7.3
2024-02-02T06:23:18.071Z,7.1
2024-02-02T06:24:18.270Z,6.8
2024-02-02T06:25:18.200Z,7.2
2024-02-02T06:26:17.761Z,7.0
2024-02-02T06:27:17.801Z,7.1
2024-02-02T06:28:17.411Z,6.6
2024-02-02T06:29:17.425Z,7.0
2024-02-02T06:30:17.510Z,7.0
2024-02-02T06:31:17.323Z,6.3
2024-02-02T06:32:18.177Z,7.0
2024-02-02T06:33:17.510Z,6.3
2024-02-02T06:34:18.334Z,6.5
2024-02-02T06:35:17.997Z,6.6
2024-02-02T06:36:17.876Z,5.6
2024-02-02T06:37:18.137Z,6.8
2024-02-02T06:38:17.894Z,6.3
2024-02-02T06:39:17.884Z,6.6
2024-02-02T06:40:17.508Z,6.7
2024-02-02T06:41:17.323Z,6.4
2024-02-02T06:42:17.533Z,7.0
2024-02-02T06:43:18.174Z,6.6
2024-02-02T06:44:17.694Z,7.3
2024-02-02T06:45:17.530Z,6.4
2024-02-02T06:46:18.230Z,6.1
2024-02-02T06:47:18.127Z,6.6
2024-02-02T06:48:17.836Z,5.8
2024-02-02T06:49:17.970Z,5.6
2024-02-02T06:50:17.589Z,7.2
2024-02-02T06:51:17.355Z,6.3
2024-02-02T06:52:18.218Z,6.6
2024-02-02T06:53:17.838Z,7.0
2024-02-02T06:54:17.787Z,6.5
2024-02-02T06:55:17.503Z,6.0
2024-02-02T06:56:36.541Z,5.9
2024-02-02T06:57:18.091Z,6.2
2024-02-02T06:58:31.264Z,7.1
2024-02-02T06:59:17.665Z,6.9
2024-02-02T07:00:18.155Z,7.8
2024-02-02T07:01:17.843Z,7.1
2024-02-02T07:02:18.622Z,7.1
2024-02-02T07:03:17.456Z,6.6
2024-02-02T07:04:18.010Z,7.7
2024-02-02T07:05:17.616Z,7.7
2024-02-02T07:06:17.457Z,6.4
2024-02-02T07:07:18.189Z,6.9
2024-02-02T07:08:18.169Z,6.0
2024-02-02T07:09:22.846Z,7.2
2024-02-02T07:10:18.162Z,7.8
2024-02-02T07:11:37.832Z,8.9
2024-02-02T07:12:38.010Z,8.4
2024-02-02T07:13:18.252Z,8.8
2024-02-02T07:14:28.314Z,8.0
2024-02-02T07:15:18.482Z,8.8
2024-02-02T07:16:28.883Z,8.1
2024-02-02T07:17:27.833Z,7.8
2024-02-02T07:18:25.494Z,8.0
2024-02-02T07:19:22.303Z,8.1
2024-02-02T07:20:27.919Z,8.2
2024-02-02T07:21:17.554Z,8.3
2024-02-02T07:22:22.137Z,8.3
2024-02-02T07:23:20.132Z,8.1
2024-02-02T07:24:18.107Z,8.5
2024-02-02T07:25:20.521Z,8.3
2024-02-02T07:26:32.608Z,8.4
2024-02-02T07:27:25.557Z,8.5
2024-02-02T07:28:28.747Z,8.3
2024-02-02T07:29:23.054Z,8.5
2024-02-02T07:30:37.400Z,7.9
2024-02-02T07:31:22.618Z,7.5
2024-02-02T07:32:17.893Z,8.3
2024-02-02T07:33:21.056Z,8.2
2024-02-02T07:34:40.005Z,8.4
2024-02-02T07:35:22.852Z,8.9
2024-02-02T07:36:29.981Z,7.2
2024-02-02T07:37:28.293Z,8.9
2024-02-02T07:38:25.877Z,7.6
2024-02-02T07:39:22.703Z,7.8
2024-02-02T07:40:35.677Z,7.9
2024-02-02T07:41:18.699Z,8.8
2024-02-02T07:42:17.822Z,8.8
2024-02-02T07:43:17.712Z,8.5
2024-02-02T07:44:17.632Z,8.5
2024-02-02T07:45:17.814Z,8.2
2024-02-02T07:46:17.574Z,7.4
2024-02-02T07:47:17.395Z,8.7
2024-02-02T07:48:18.151Z,7.0
2024-02-02T07:49:18.314Z,8.3
2024-02-02T07:50:17.929Z,8.7
2024-02-02T07:51:17.544Z,7.9
2024-02-02T07:52:18.147Z,8.6
2024-02-02T07:53:17.934Z,8.6
2024-02-02T07:54:17.942Z,8.2
2024-02-02T07:55:17.738Z,8.0
2024-02-02T07:56:17.818Z,7.9
2024-02-02T07:57:18.188Z,7.8
2024-02-02T07:58:18.020Z,7.2
2024-02-02T07:59:17.365Z,7.3
2024-02-02T08:00:18.505Z,7.3
2024-02-02T08:01:18.116Z,7.7
2024-02-02T08:02:17.754Z,7.8
2024-02-02T08:03:17.773Z,8.0
2024-02-02T08:04:18.296Z,8.6
2024-02-02T08:05:17.402Z,8.0
2024-02-02T08:06:17.341Z,7.7
2024-02-02T08:07:18.247Z,7.6
2024-02-02T08:08:17.880Z,8.3
2024-02-02T08:09:18.255Z,7.9
2024-02-02T08:10:17.924Z,8.0
2024-02-02T08:11:17.815Z,9.1
2024-02-02T08:12:18.042Z,8.8
2024-02-02T08:13:17.833Z,8.7
2024-02-02T08:14:18.150Z,8.2
2024-02-02T08:15:17.927Z,7.3
2024-02-02T08:16:18.172Z,9.7
2024-02-02T08:17:17.526Z,7.8
2024-02-02T08:18:17.470Z,7.6
2024-02-02T08:19:18.123Z,8.4
2024-02-02T08:20:18.007Z,8.7
2024-02-02T08:21:17.760Z,8.5
2024-02-02T08:22:17.346Z,7.8
2024-02-02T08:23:18.249Z,7.8
2024-02-02T08:24:17.548Z,8.3
2024-02-02T08:25:17.555Z,7.9
2024-02-02T08:26:17.744Z,8.8
2024-02-02T08:27:17.420Z,7.9
2024-02-02T08:28:18.152Z,8.2
2024-02-02T08:29:18.064Z,8.2
2024-02-02T08:30:18.359Z,7.7
2024-02-02T08:31:18.005Z,6.6
2024-02-02T08:32:17.792Z,7.6
2024-02-02T08:33:17.742Z,8.1
2024-02-02T08:34:17.655Z,8.5
2024-02-02T08:35:21.942Z,8.8
2024-02-02T08:36:18.257Z,8.9
2024-02-02T08:37:17.828Z,7.7
2024-02-02T08:38:17.857Z,7.5
2024-02-02T08:39:17.627Z,7.5
2024-02-02T08:40:31.282Z,8.3
2024-02-02T08:41:18.056Z,7.4
2024-02-02T08:42:21.185Z,8.0
2024-02-02T08:43:18.485Z,7.4
2024-02-02T08:44:21.376Z,8.2
2024-02-02T08:45:31.931Z,8.2
2024-02-02T08:46:18.641Z,9.4
2024-02-02T08:47:20.989Z,6.9
2024-02-02T08:48:28.363Z,8.3
2024-02-02T08:49:28.848Z,7.5
2024-02-02T08:50:18.170Z,8.4
2024-02-02T08:51:22.684Z,8.5
2024-02-02T08:52:28.370Z,7.9
2024-02-02T08:53:17.381Z,8.7
2024-02-02T08:54:35.966Z,8.1
2024-02-02T08:55:34.785Z,8.4
2024-02-02T08:56:17.818Z,7.1
2024-02-02T08:57:22.423Z,8.0
2024-02-02T08:58:24.605Z,7.0
2024-02-02T08:59:31.829Z,7.9
2024-02-02T09:00:22.963Z,8.9
2024-02-02T09:01:22.665Z,8.2
2024-02-02T09:02:28.295Z,7.7
2024-02-02T09:03:38.726Z,7.8
2024-02-02T09:04:37.850Z,7.9
2024-02-02T09:05:24.791Z,8.4
2024-02-02T09:06:25.424Z,8.4
2024-02-02T09:07:17.867Z,8.1
2024-02-02T09:08:25.273Z,7.5
2024-02-02T09:09:18.271Z,8.5
2024-02-02T09:10:28.419Z,8.2
2024-02-02T09:11:23.716Z,7.8
2024-02-02T09:12:18.257Z,8.1
2024-02-02T09:13:20.473Z,7.8
2024-02-02T09:14:18.557Z,7.0
2024-02-02T09:15:18.331Z,6.9
2024-02-02T09:16:18.969Z,8.2
2024-02-02T09:17:18.010Z,7.9
2024-02-02T09:18:34.444Z,8.6
2024-02-02T09:19:21.343Z,8.3
2024-02-02T09:20:22.399Z,7.9
2024-02-02T09:21:19.730Z,7.3
2024-02-02T09:22:18.411Z,7.5
2024-02-02T09:23:18.183Z,7.8
2024-02-02T09:24:36.598Z,7.5
2024-02-02T09:25:20.719Z,8.1
2024-02-02T09:26:22.472Z,7.4
2024-02-02T09:27:30.694Z,8.2
2024-02-02T09:28:28.756Z,6.9
2024-02-02T09:29:18.001Z,6.4
2024-02-02T09:30:21.150Z,8.1
2024-02-02T09:31:21.106Z,8.4
2024-02-02T09:32:17.439Z,8.3
2024-02-02T09:33:25.913Z,7.9
2024-02-02T09:34:20.905Z,7.3
2024-02-02T09:35:31.273Z,6.7
2024-02-02T09:36:18.399Z,8.0
2024-02-02T09:37:22.337Z,7.8
2024-02-02T09:38:17.675Z,7.8
2024-02-02T09:39:34.000Z,7.9
2024-02-02T09:40:25.826Z,8.3
2024-02-02T09:41:22.885Z,8.9
2024-02-02T09:42:31.350Z,7.8
2024-02-02T09:43:25.295Z,6.6
2024-02-02T09:44:24.780Z,6.8
2024-02-02T09:45:31.849Z,8.1
2024-02-02T09:46:39.979Z,8.5
2024-02-02T09:47:25.861Z,7.3
2024-02-02T09:48:31.536Z,8.4
2024-02-02T09:49:35.299Z,7.9
2024-02-02T09:50:25.972Z,7.0
2024-02-02T09:51:35.721Z,8.8
2024-02-02T09:52:23.020Z,8.0
2024-02-02T09:53:25.366Z,8.4
2024-02-02T09:54:35.259Z,8.2
2024-02-02T09:55:35.529Z,8.6
2024-02-02T09:56:22.669Z,8.1
2024-02-02T09:57:25.421Z,7.9
2024-02-02T09:58:27.569Z,8.7
2024-02-02T09:59:23.110Z,8.9
2024-02-02T10:00:37.376Z,8.7
2024-02-02T10:01:36.797Z,7.3
2024-02-02T10:02:28.397Z,7.8
2024-02-02T10:03:35.953Z,8.6
2024-02-02T10:04:36.315Z,8.7
2024-02-02T10:05:25.479Z,8.5
2024-02-02T10:06:25.426Z,8.5
2024-02-02T10:07:35.723Z,8.6
2024-02-02T10:08:34.322Z,7.8
2024-02-02T10:09:22.602Z,7.8
2024-02-02T10:10:34.331Z,7.3
2024-02-02T10:11:23.460Z,7.1
2024-02-02T10:12:28.914Z,8.4
2024-02-02T10:13:35.202Z,7.8
2024-02-02T10:14:25.846Z,7.7
2024-02-02T10:15:22.996Z,7.7
2024-02-02T10:16:31.382Z,7.5
2024-02-02T10:17:22.311Z,8.4
2024-02-02T10:18:35.362Z,7.8
2024-02-02T10:19:22.550Z,8.2
2024-02-02T10:20:22.420Z,7.3
2024-02-02T10:21:25.853Z,7.5
2024-02-02T10:22:25.912Z,7.1
2024-02-02T10:23:36.821Z,7.5
2024-02-02T10:24:25.403Z,8.1
2024-02-02T10:25:31.435Z,8.6
2024-02-02T10:26:40.884Z,7.9
2024-02-02T10:27:37.387Z,8.6
2024-02-02T10:28:22.468Z,8.9
2024-02-02T10:29:28.389Z,7.1
2024-02-02T10:30:27.348Z,6.9
2024-02-02T10:31:28.900Z,8.2
2024-02-02T10:32:27.876Z,8.3
2024-02-02T10:33:25.938Z,8.2
2024-02-02T10:34:25.558Z,7.1
2024-02-02T10:35:28.324Z,7.7
2024-02-02T10:36:25.420Z,7.4
2024-02-02T10:37:25.354Z,7.4
2024-02-02T10:38:35.742Z,7.8
2024-02-02T10:39:30.672Z,7.6
2024-02-02T10:40:25.354Z,8.3
2024-02-02T10:41:24.645Z,8.4
2024-02-02T10:42:33.828Z,7.8
2024-02-02T10:43:22.735Z,7.9
2024-02-02T10:44:24.893Z,8.6
2024-02-02T10:45:26.040Z,8.4
2024-02-02T10:46:35.760Z,8.6
2024-02-02T10:47:22.525Z,8.1
2024-02-02T10:48:35.975Z,8.4
2024-02-02T10:49:34.470Z,7.9
2024-02-02T10:50:21.393Z,6.9
2024-02-02T10:51:37.451Z,7.6
2024-02-02T10:52:40.414Z,8.1
2024-02-02T10:53:27.932Z,8.8
2024-02-02T10:54:36.919Z,8.2
2024-02-02T10:55:25.942Z,7.8
2024-02-02T10:56:25.362Z,7.9
2024-02-02T10:57:25.582Z,7.9
2024-02-02T10:58:24.887Z,8.6
2024-02-02T10:59:34.871Z,8.7
2024-02-02T11:00:20.860Z,9.3
2024-02-02T11:01:27.963Z,8.7
2024-02-02T11:02:31.444Z,8.8
2024-02-02T11:03:24.888Z,8.1
2024-02-02T11:04:22.486Z,8.1
2024-02-02T11:05:24.706Z,8.5
2024-02-02T11:06:21.622Z,8.2
2024-02-02T11:07:32.656Z,9.2
2024-02-02T11:08:21.973Z,8.5
2024-02-02T11:09:22.373Z,8.1
2024-02-02T11:10:21.140Z,7.3
2024-02-02T11:11:19.907Z,9.2
2024-02-02T11:12:34.426Z,7.9
2024-02-02T11:13:22.563Z,8.3
2024-02-02T11:14:22.402Z,8.8
2024-02-02T11:15:33.972Z,8.2
2024-02-02T11:16:22.937Z,8.6
2024-02-02T11:17:33.486Z,8.3
2024-02-02T11:18:34.461Z,7.9
2024-02-02T11:19:22.750Z,8.5
2024-02-02T11:20:22.518Z,9.1
2024-02-02T11:21:25.982Z,8.8
2024-02-02T11:22:30.798Z,8.9
2024-02-02T11:23:31.923Z,7.9
2024-02-02T11:24:22.712Z,8.0
2024-02-02T11:25:21.831Z,8.1
2024-02-02T11:26:22.385Z,8.4
2024-02-02T11:27:22.597Z,8.3
2024-02-02T11:28:22.862Z,7.7
2024-02-02T11:29:22.703Z,7.8
2024-02-02T11:30:28.438Z,7.4
2024-02-02T11:31:25.490Z,7.7
2024-02-02T11:32:22.787Z,7.6
2024-02-02T11:33:35.857Z,7.5
2024-02-02T11:34:22.749Z,8.9
2024-02-02T11:35:28.415Z,7.4
2024-02-02T11:36:40.020Z,8.4
2024-02-02T11:37:24.891Z,8.1
2024-02-02T11:38:35.286Z,8.1
2024-02-02T11:39:27.905Z,8.3
2024-02-02T11:40:19.424Z,8.3
2024-02-02T11:41:22.258Z,7.9
2024-02-02T11:42:20.702Z,7.5
2024-02-02T11:43:18.574Z,7.4
2024-02-02T11:44:18.404Z,8.1
2024-02-02T11:45:19.859Z,8.2
2024-02-02T11:46:17.821Z,7.8
2024-02-02T11:47:17.924Z,7.6
2024-02-02T11:48:31.208Z,8.7
2024-02-02T11:49:22.993Z,6.7
2024-02-02T11:50:20.063Z,7.8
2024-02-02T11:51:20.428Z,7.2
2024-02-02T11:52:22.227Z,7.0
2024-02-02T11:53:27.958Z,7.1
2024-02-02T11:54:31.182Z,6.9
2024-02-02T11:55:24.860Z,7.5
2024-02-02T11:56:22.161Z,6.8
2024-02-02T11:57:20.833Z,7.5
2024-02-02T11:58:18.532Z,7.2
2024-02-02T11:59:20.139Z,7.7
2024-02-02T12:00:22.492Z,6.9
2024-02-02T12:01:35.830Z,8.2
2024-02-02T12:02:22.223Z,8.0
2024-02-02T12:03:25.928Z,7.1
2024-02-02T12:04:31.449Z,7.5
2024-02-02T12:05:18.011Z,8.1
2024-02-02T12:06:19.190Z,8.1
2024-02-02T12:07:22.775Z,8.4
2024-02-02T12:08:25.433Z,8.2
2024-02-02T12:09:24.787Z,7.6
2024-02-02T12:10:19.669Z,7.7
2024-02-02T12:11:26.331Z,7.1
2024-02-02T12:12:21.356Z,7.1
2024-02-02T12:13:21.047Z,7.9
2024-02-02T12:14:26.173Z,7.0
2024-02-02T12:15:17.780Z,7.7
2024-02-02T12:16:17.581Z,8.1
2024-02-02T12:17:18.647Z,8.2
2024-02-02T12:18:18.301Z,7.3
2024-02-02T12:19:17.688Z,7.4
2024-02-02T12:20:18.777Z,8.2
2024-02-02T12:21:17.931Z,7.9
2024-02-02T12:22:18.010Z,8.1
2024-02-02T12:23:17.623Z,8.4
2024-02-02T12:24:17.569Z,7.5
2024-02-02T12:25:18.235Z,7.0
2024-02-02T12:26:17.760Z,7.8
2024-02-02T12:27:18.099Z,8.2
2024-02-02T12:28:17.507Z,7.2
2024-02-02T12:29:18.373Z,7.0
2024-02-02T12:30:18.189Z,7.9
2024-02-02T12:31:17.868Z,7.7
2024-02-02T12:32:17.623Z,7.3
2024-02-02T12:33:19.930Z,7.9
2024-02-02T12:34:18.406Z,7.2
2024-02-02T12:35:18.195Z,6.7
2024-02-02T12:36:17.831Z,7.5
2024-02-02T12:37:17.602Z,7.6
2024-02-02T12:38:21.036Z,8.1
2024-02-02T12:39:18.100Z,7.7
2024-02-02T12:40:18.155Z,7.7
2024-02-02T12:41:17.762Z,7.5
2024-02-02T12:42:17.545Z,7.4
2024-02-02T12:43:23.373Z,7.7
2024-02-02T12:44:18.236Z,7.5
2024-02-02T12:45:18.191Z,7.9
2024-02-02T12:46:17.850Z,7.4
2024-02-02T12:47:24.093Z,7.8
2024-02-02T12:48:17.669Z,7.1
2024-02-02T12:49:18.306Z,7.9
2024-02-02T12:50:18.061Z,7.8
2024-02-02T12:51:20.150Z,7.7
2024-02-02T12:52:18.024Z,7.9
2024-02-02T12:53:18.263Z,7.7
2024-02-02T12:54:18.086Z,6.9
2024-02-02T12:55:17.884Z,6.5
2024-02-02T12:56:17.522Z,7.2
2024-02-02T12:57:17.510Z,7.2
2024-02-02T12:58:17.669Z,8.1
2024-02-02T12:59:17.522Z,7.8
2024-02-02T13:00:18.499Z,6.6
2024-02-02T13:01:17.790Z,7.5
2024-02-02T13:02:17.840Z,7.4
2024-02-02T13:03:18.367Z,7.0
2024-02-02T13:04:18.097Z,8.3
2024-02-02T13:05:18.590Z,8.4
2024-02-02T13:06:17.836Z,7.3
2024-02-02T13:07:17.475Z,7.2
2024-02-02T13:08:22.329Z,7.9
2024-02-02T13:09:22.272Z,8.5
2024-02-02T13:10:40.961Z,7.0
2024-02-02T13:11:21.069Z,6.7
2024-02-02T13:12:26.776Z,6.8
2024-02-02T13:13:22.237Z,8.1
2024-02-02T13:14:22.059Z,7.2
2024-02-02T13:15:20.495Z,8.0
2024-02-02T13:16:27.716Z,6.8
2024-02-02T13:17:18.030Z,8.0
2024-02-02T13:18:20.623Z,6.9
2024-02-02T13:19:30.018Z,7.1
2024-02-02T13:20:17.652Z,7.4
2024-02-02T13:21:24.812Z,6.5
2024-02-02T13:22:21.702Z,7.2
2024-02-02T13:23:23.718Z,8.0
2024-02-02T13:24:18.238Z,7.3
2024-02-02T13:25:20.778Z,6.4
2024-02-02T13:26:20.859Z,6.8
2024-02-02T13:27:18.036Z,7.4
2024-02-02T13:28:17.384Z,6.8
2024-02-02T13:29:27.043Z,7.5
2024-02-02T13:30:21.890Z,6.1
2024-02-02T13:31:17.953Z,6.7
2024-02-02T13:32:20.738Z,7.3
2024-02-02T13:33:20.601Z,7.1
2024-02-02T13:34:18.204Z,6.7
2024-02-02T13:35:18.329Z,7.3
2024-02-02T13:36:18.396Z,7.1
2024-02-02T13:37:18.049Z,6.4
2024-02-02T13:38:17.983Z,7.2
2024-02-02T13:39:20.757Z,7.1
2024-02-02T13:40:18.297Z,8.0
2024-02-02T13:41:20.146Z,6.3
2024-02-02T13:42:18.058Z,7.3
2024-02-02T13:43:18.214Z,6.9
2024-02-02T13:44:22.878Z,6.6
2024-02-02T13:45:17.865Z,6.4
2024-02-02T13:46:18.171Z,7.0